sensor_id;sensor_type;location;lat;lon;timestamp;temperature;humidity
33955;DHT22;20233;50.804;7.126;2023-09-08T00:01:49;20.40;99.90
33955;DHT22;20233;50.804;7.126;2023-09-08T00:04:14;20.40;99.90
33955;DHT22;20233;50.804;7.126;2023-09-08T00:06:41;20.30;99.90
33955;DHT22;20233;50.804;7.126;2023-09-08T00:09:06;20.30;99.90
33955;DHT22;20233;50.804;7.126;2023-09-08T00:11:32;20.20;99.90
33955;DHT22;20233;50.804;7.126;2023-09-08T00:13:58;20.20;99.90
33955;DHT22;20233;50.804;7.126;2023-09-08T00:16:23;20.20;99.90
33955;DHT22;20233;50.804;7.126;2023-09-08T00:18:49;20.20;99.90
33955;DHT22;20233;50.804;7.126;2023-09-08T00:21:15;20.20;99.90
33955;DHT22;20233;50.804;7.126;2023-09-08T00:23:41;20.10;99.90
33955;DHT22;20233;50.804;7.126;2023-09-08T00:26:06;20.10;99.90
33955;DHT22;20233;50.804;7.126;2023-09-08T00:28:32;20.10;99.90
33955;DHT22;20233;50.804;7.126;2023-09-08T00:30:57;20.00;99.90
33955;DHT22;20233;50.804;7.126;2023-09-08T00:33:25;20.00;99.90
33955;DHT22;20233;50.804;7.126;2023-09-08T00:35:50;20.00;99.90
33955;DHT22;20233;50.804;7.126;2023-09-08T00:38:16;19.90;99.90
33955;DHT22;20233;50.804;7.126;2023-09-08T00:40:42;19.90;99.90
33955;DHT22;20233;50.804;7.126;2023-09-08T00:43:07;20.00;99.90
33955;DHT22;20233;50.804;7.126;2023-09-08T00:45:38;19.90;99.90
33955;DHT22;20233;50.804;7.126;2023-09-08T00:48:11;19.80;99.90
33955;DHT22;20233;50.804;7.126;2023-09-08T00:50:38;19.80;99.90
33955;DHT22;20233;50.804;7.126;2023-09-08T00:53:05;19.80;99.90
33955;DHT22;20233;50.804;7.126;2023-09-08T00:55:32;19.80;99.90
33955;DHT22;20233;50.804;7.126;2023-09-08T00:57:58;19.70;99.90
33955;DHT22;20233;50.804;7.126;2023-09-08T01:00:25;19.70;99.90
33955;DHT22;20233;50.804;7.126;2023-09-08T01:02:50;19.70;99.90
33955;DHT22;20233;50.804;7.126;2023-09-08T01:05:16;19.70;99.90
33955;DHT22;20233;50.804;7.126;2023-09-08T01:07:42;19.60;99.90
33955;DHT22;20233;50.804;7.126;2023-09-08T01:10:09;19.60;99.90
33955;DHT22;20233;50.804;7.126;2023-09-08T01:15:02;19.50;99.90
33955;DHT22;20233;50.804;7.126;2023-09-08T01:17:28;19.50;99.90
33955;DHT22;20233;50.804;7.126;2023-09-08T01:19:55;19.50;99.90
33955;DHT22;20233;50.804;7.126;2023-09-08T01:25:25;19.40;99.90
33955;DHT22;20233;50.804;7.126;2023-09-08T01:27:52;19.40;99.90
33955;DHT22;20233;50.804;7.126;2023-09-08T01:30:18;19.30;99.90
33955;DHT22;20233;50.804;7.126;2023-09-08T01:32:45;19.30;99.90
33955;DHT22;20233;50.804;7.126;2023-09-08T01:35:12;19.30;99.90
33955;DHT22;20233;50.804;7.126;2023-09-08T01:37:45;19.30;99.90
33955;DHT22;20233;50.804;7.126;2023-09-08T01:42:38;19.30;99.90
33955;DHT22;20233;50.804;7.126;2023-09-08T01:45:04;19.20;99.90
33955;DHT22;20233;50.804;7.126;2023-09-08T01:47:30;19.20;99.90
33955;DHT22;20233;50.804;7.126;2023-09-08T01:49:55;19.10;99.90
33955;DHT22;20233;50.804;7.126;2023-09-08T01:52:21;19.10;99.90
33955;DHT22;20233;50.804;7.126;2023-09-08T01:54:46;19.10;99.90
33955;DHT22;20233;50.804;7.126;2023-09-08T01:57:12;19.10;99.90
33955;DHT22;20233;50.804;7.126;2023-09-08T01:59:37;19.00;99.90
33955;DHT22;20233;50.804;7.126;2023-09-08T02:02:03;19.00;99.90
33955;DHT22;20233;50.804;7.126;2023-09-08T02:04:29;19.00;99.90
33955;DHT22;20233;50.804;7.126;2023-09-08T02:06:55;19.00;99.90
33955;DHT22;20233;50.804;7.126;2023-09-08T02:09:22;18.90;99.90
33955;DHT22;20233;50.804;7.126;2023-09-08T02:11:47;18.90;99.90
33955;DHT22;20233;50.804;7.126;2023-09-08T02:14:13;18.90;99.90
33955;DHT22;20233;50.804;7.126;2023-09-08T02:16:38;18.80;99.90
33955;DHT22;20233;50.804;7.126;2023-09-08T02:19:05;18.70;99.90
33955;DHT22;20233;50.804;7.126;2023-09-08T02:21:30;18.70;99.90
33955;DHT22;20233;50.804;7.126;2023-09-08T02:23:56;18.70;99.90
33955;DHT22;20233;50.804;7.126;2023-09-08T02:26:21;18.70;99.90
33955;DHT22;20233;50.804;7.126;2023-09-08T02:28:47;18.70;99.90
33955;DHT22;20233;50.804;7.126;2023-09-08T02:31:12;18.70;99.90
33955;DHT22;20233;50.804;7.126;2023-09-08T02:33:38;18.70;99.90
33955;DHT22;20233;50.804;7.126;2023-09-08T02:36:06;18.70;99.90
33955;DHT22;20233;50.804;7.126;2023-09-08T02:38:32;18.60;99.90
33955;DHT22;20233;50.804;7.126;2023-09-08T02:40:58;18.60;99.90
33955;DHT22;20233;50.804;7.126;2023-09-08T02:43:23;18.60;99.90
33955;DHT22;20233;50.804;7.126;2023-09-08T02:45:49;18.50;99.90
33955;DHT22;20233;50.804;7.126;2023-09-08T02:48:15;18.50;99.90
33955;DHT22;20233;50.804;7.126;2023-09-08T02:50:43;18.50;99.90
33955;DHT22;20233;50.804;7.126;2023-09-08T02:53:08;18.40;99.90
33955;DHT22;20233;50.804;7.126;2023-09-08T02:55:34;18.40;99.90
33955;DHT22;20233;50.804;7.126;2023-09-08T02:57:59;18.40;99.90
33955;DHT22;20233;50.804;7.126;2023-09-08T03:00:25;18.40;99.90
33955;DHT22;20233;50.804;7.126;2023-09-08T03:02:50;18.30;99.90
33955;DHT22;20233;50.804;7.126;2023-09-08T03:05:16;18.30;99.90
33955;DHT22;20233;50.804;7.126;2023-09-08T03:07:42;18.30;99.90
33955;DHT22;20233;50.804;7.126;2023-09-08T03:10:07;18.30;99.90
33955;DHT22;20233;50.804;7.126;2023-09-08T03:12:33;18.20;99.90
33955;DHT22;20233;50.804;7.126;2023-09-08T03:15:00;18.20;99.90
33955;DHT22;20233;50.804;7.126;2023-09-08T03:17:25;18.20;99.90
33955;DHT22;20233;50.804;7.126;2023-09-08T03:19:51;18.20;99.90
33955;DHT22;20233;50.804;7.126;2023-09-08T03:22:16;18.20;99.90
33955;DHT22;20233;50.804;7.126;2023-09-08T03:24:42;18.20;99.90
33955;DHT22;20233;50.804;7.126;2023-09-08T03:27:07;18.20;99.90
33955;DHT22;20233;50.804;7.126;2023-09-08T03:29:33;18.20;99.90
33955;DHT22;20233;50.804;7.126;2023-09-08T03:31:59;18.10;99.90
33955;DHT22;20233;50.804;7.126;2023-09-08T03:34:24;18.10;99.90
33955;DHT22;20233;50.804;7.126;2023-09-08T03:36:50;18.10;99.90
33955;DHT22;20233;50.804;7.126;2023-09-08T03:39:15;18.10;99.90
33955;DHT22;20233;50.804;7.126;2023-09-08T03:41:41;18.10;99.90
33955;DHT22;20233;50.804;7.126;2023-09-08T03:44:06;18.10;99.90
33955;DHT22;20233;50.804;7.126;2023-09-08T03:46:32;18.10;99.90
33955;DHT22;20233;50.804;7.126;2023-09-08T03:48:57;18.10;99.90
33955;DHT22;20233;50.804;7.126;2023-09-08T03:51:26;18.10;99.90
33955;DHT22;20233;50.804;7.126;2023-09-08T03:53:53;18.10;99.90
33955;DHT22;20233;50.804;7.126;2023-09-08T03:56:18;18.10;99.90
33955;DHT22;20233;50.804;7.126;2023-09-08T03:58:45;18.10;99.90
33955;DHT22;20233;50.804;7.126;2023-09-08T04:01:11;18.10;99.90
33955;DHT22;20233;50.804;7.126;2023-09-08T04:03:37;18.00;99.90
33955;DHT22;20233;50.804;7.126;2023-09-08T04:06:02;18.00;99.90
33955;DHT22;20233;50.804;7.126;2023-09-08T04:08:28;18.00;99.90
33955;DHT22;20233;50.804;7.126;2023-09-08T04:10:53;17.90;99.90
33955;DHT22;20233;50.804;7.126;2023-09-08T04:13:19;17.80;99.90
33955;DHT22;20233;50.804;7.126;2023-09-08T04:15:44;17.80;99.90
33955;DHT22;20233;50.804;7.126;2023-09-08T04:18:09;17.70;99.90
33955;DHT22;20233;50.804;7.126;2023-09-08T04:20:35;17.70;99.90
33955;DHT22;20233;50.804;7.126;2023-09-08T04:23:00;17.70;99.90
33955;DHT22;20233;50.804;7.126;2023-09-08T04:25:27;17.70;99.90
33955;DHT22;20233;50.804;7.126;2023-09-08T04:27:52;17.60;99.90
33955;DHT22;20233;50.804;7.126;2023-09-08T04:30:18;17.50;99.90
33955;DHT22;20233;50.804;7.126;2023-09-08T04:32:44;17.50;99.90
33955;DHT22;20233;50.804;7.126;2023-09-08T04:35:09;17.50;99.90
33955;DHT22;20233;50.804;7.126;2023-09-08T04:37:35;17.50;99.90
33955;DHT22;20233;50.804;7.126;2023-09-08T04:40:02;17.50;99.90
33955;DHT22;20233;50.804;7.126;2023-09-08T04:42:28;17.50;99.90
33955;DHT22;20233;50.804;7.126;2023-09-08T04:44:55;17.40;99.90
33955;DHT22;20233;50.804;7.126;2023-09-08T04:47:20;17.40;99.90
33955;DHT22;20233;50.804;7.126;2023-09-08T04:49:46;17.40;99.90
33955;DHT22;20233;50.804;7.126;2023-09-08T04:52:11;17.40;99.90
33955;DHT22;20233;50.804;7.126;2023-09-08T04:54:37;17.40;99.90
33955;DHT22;20233;50.804;7.126;2023-09-08T04:57:03;17.30;99.90
33955;DHT22;20233;50.804;7.126;2023-09-08T04:59:29;17.30;99.90
33955;DHT22;20233;50.804;7.126;2023-09-08T05:01:54;17.30;99.90
33955;DHT22;20233;50.804;7.126;2023-09-08T05:04:20;17.30;99.90
33955;DHT22;20233;50.804;7.126;2023-09-08T05:06:47;17.30;99.90
33955;DHT22;20233;50.804;7.126;2023-09-08T05:09:14;17.30;99.90
33955;DHT22;20233;50.804;7.126;2023-09-08T05:11:42;17.30;99.90
33955;DHT22;20233;50.804;7.126;2023-09-08T05:14:09;17.30;99.90
33955;DHT22;20233;50.804;7.126;2023-09-08T05:16:36;17.30;99.90
33955;DHT22;20233;50.804;7.126;2023-09-08T05:19:06;17.30;99.90
33955;DHT22;20233;50.804;7.126;2023-09-08T05:21:34;17.30;99.90
33955;DHT22;20233;50.804;7.126;2023-09-08T05:24:01;17.30;99.90
33955;DHT22;20233;50.804;7.126;2023-09-08T05:26:28;17.40;99.90
33955;DHT22;20233;50.804;7.126;2023-09-08T05:28:54;17.40;99.90
33955;DHT22;20233;50.804;7.126;2023-09-08T05:31:20;17.40;99.90
33955;DHT22;20233;50.804;7.126;2023-09-08T05:33:47;17.40;99.90
33955;DHT22;20233;50.804;7.126;2023-09-08T05:36:14;17.50;99.90
33955;DHT22;20233;50.804;7.126;2023-09-08T05:38:42;17.50;99.90
33955;DHT22;20233;50.804;7.126;2023-09-08T05:41:08;17.50;99.90
33955;DHT22;20233;50.804;7.126;2023-09-08T05:43:36;17.50;99.90
33955;DHT22;20233;50.804;7.126;2023-09-08T05:46:02;17.60;99.90
33955;DHT22;20233;50.804;7.126;2023-09-08T05:48:29;17.70;99.90
33955;DHT22;20233;50.804;7.126;2023-09-08T05:50:55;17.80;99.90
33955;DHT22;20233;50.804;7.126;2023-09-08T05:53:21;17.80;99.90
33955;DHT22;20233;50.804;7.126;2023-09-08T05:55:48;17.90;99.90
33955;DHT22;20233;50.804;7.126;2023-09-08T05:58:14;17.90;99.90
33955;DHT22;20233;50.804;7.126;2023-09-08T06:00:41;18.00;99.90
33955;DHT22;20233;50.804;7.126;2023-09-08T06:03:07;18.10;99.90
33955;DHT22;20233;50.804;7.126;2023-09-08T06:05:34;18.10;99.90
33955;DHT22;20233;50.804;7.126;2023-09-08T06:08:00;18.20;99.90
33955;DHT22;20233;50.804;7.126;2023-09-08T06:10:26;18.30;99.90
33955;DHT22;20233;50.804;7.126;2023-09-08T06:12:52;18.30;99.90
33955;DHT22;20233;50.804;7.126;2023-09-08T06:15:23;18.40;99.90
33955;DHT22;20233;50.804;7.126;2023-09-08T06:17:53;18.40;99.90
33955;DHT22;20233;50.804;7.126;2023-09-08T06:20:19;18.40;99.90
33955;DHT22;20233;50.804;7.126;2023-09-08T06:22:45;18.30;99.90
33955;DHT22;20233;50.804;7.126;2023-09-08T06:25:12;18.40;99.90
33955;DHT22;20233;50.804;7.126;2023-09-08T06:27:39;18.40;99.90
33955;DHT22;20233;50.804;7.126;2023-09-08T06:30:06;18.40;99.90
33955;DHT22;20233;50.804;7.126;2023-09-08T06:32:32;18.50;99.90
33955;DHT22;20233;50.804;7.126;2023-09-08T06:34:59;18.60;99.90
33955;DHT22;20233;50.804;7.126;2023-09-08T06:37:26;18.60;99.90
33955;DHT22;20233;50.804;7.126;2023-09-08T06:39:54;18.70;99.90
33955;DHT22;20233;50.804;7.126;2023-09-08T06:42:20;18.80;99.90
33955;DHT22;20233;50.804;7.126;2023-09-08T06:44:47;18.90;99.90
33955;DHT22;20233;50.804;7.126;2023-09-08T06:47:14;18.90;99.90
33955;DHT22;20233;50.804;7.126;2023-09-08T06:49:40;19.00;99.90
33955;DHT22;20233;50.804;7.126;2023-09-08T06:52:07;19.10;99.90
33955;DHT22;20233;50.804;7.126;2023-09-08T06:54:34;19.10;99.90
33955;DHT22;20233;50.804;7.126;2023-09-08T06:57:00;19.20;99.90
33955;DHT22;20233;50.804;7.126;2023-09-08T06:59:26;19.20;99.90
33955;DHT22;20233;50.804;7.126;2023-09-08T07:01:52;19.20;99.90
33955;DHT22;20233;50.804;7.126;2023-09-08T07:04:19;19.30;99.90
33955;DHT22;20233;50.804;7.126;2023-09-08T07:06:46;19.40;99.90
33955;DHT22;20233;50.804;7.126;2023-09-08T07:09:13;19.40;99.90
33955;DHT22;20233;50.804;7.126;2023-09-08T07:11:39;19.50;99.90
33955;DHT22;20233;50.804;7.126;2023-09-08T07:14:06;19.60;99.90
33955;DHT22;20233;50.804;7.126;2023-09-08T07:16:33;19.60;99.90
33955;DHT22;20233;50.804;7.126;2023-09-08T07:19:00;19.70;99.90
33955;DHT22;20233;50.804;7.126;2023-09-08T07:21:27;19.80;99.90
33955;DHT22;20233;50.804;7.126;2023-09-08T07:23:53;19.90;99.90
33955;DHT22;20233;50.804;7.126;2023-09-08T07:26:20;20.00;99.90
33955;DHT22;20233;50.804;7.126;2023-09-08T07:28:47;20.10;99.90
33955;DHT22;20233;50.804;7.126;2023-09-08T07:31:15;20.10;99.90
33955;DHT22;20233;50.804;7.126;2023-09-08T07:33:42;20.20;99.90
33955;DHT22;20233;50.804;7.126;2023-09-08T07:36:10;20.30;99.90
33955;DHT22;20233;50.804;7.126;2023-09-08T07:38:37;20.40;99.90
33955;DHT22;20233;50.804;7.126;2023-09-08T07:41:04;20.40;99.90
33955;DHT22;20233;50.804;7.126;2023-09-08T07:43:31;20.50;99.90
33955;DHT22;20233;50.804;7.126;2023-09-08T07:45:57;20.60;99.90
33955;DHT22;20233;50.804;7.126;2023-09-08T07:48:23;20.70;99.90
33955;DHT22;20233;50.804;7.126;2023-09-08T07:50:49;20.70;99.90
33955;DHT22;20233;50.804;7.126;2023-09-08T07:53:16;20.80;99.90
33955;DHT22;20233;50.804;7.126;2023-09-08T07:55:43;20.80;99.90
33955;DHT22;20233;50.804;7.126;2023-09-08T07:58:11;20.90;99.90
33955;DHT22;20233;50.804;7.126;2023-09-08T08:00:38;20.90;99.90
33955;DHT22;20233;50.804;7.126;2023-09-08T08:03:05;21.00;99.90
33955;DHT22;20233;50.804;7.126;2023-09-08T08:05:32;21.20;99.90
33955;DHT22;20233;50.804;7.126;2023-09-08T08:07:59;21.20;99.90
33955;DHT22;20233;50.804;7.126;2023-09-08T08:10:26;21.30;99.90
33955;DHT22;20233;50.804;7.126;2023-09-08T08:12:53;21.40;99.90
33955;DHT22;20233;50.804;7.126;2023-09-08T08:15:20;21.50;99.90
33955;DHT22;20233;50.804;7.126;2023-09-08T08:17:47;21.70;99.90
33955;DHT22;20233;50.804;7.126;2023-09-08T08:20:14;21.80;99.90
33955;DHT22;20233;50.804;7.126;2023-09-08T08:22:44;21.80;99.90
33955;DHT22;20233;50.804;7.126;2023-09-08T08:25:12;21.90;99.90
33955;DHT22;20233;50.804;7.126;2023-09-08T08:27:41;22.10;99.90
33955;DHT22;20233;50.804;7.126;2023-09-08T08:30:09;22.20;99.90
33955;DHT22;20233;50.804;7.126;2023-09-08T08:32:38;22.40;99.90
33955;DHT22;20233;50.804;7.126;2023-09-08T08:35:05;22.50;99.90
33955;DHT22;20233;50.804;7.126;2023-09-08T08:37:31;22.60;99.90
33955;DHT22;20233;50.804;7.126;2023-09-08T08:39:57;22.70;99.90
33955;DHT22;20233;50.804;7.126;2023-09-08T08:42:33;22.80;99.90
33955;DHT22;20233;50.804;7.126;2023-09-08T08:45:01;22.90;99.90
33955;DHT22;20233;50.804;7.126;2023-09-08T08:47:29;23.00;99.90
33955;DHT22;20233;50.804;7.126;2023-09-08T08:49:57;23.10;99.90
33955;DHT22;20233;50.804;7.126;2023-09-08T08:52:27;23.30;99.90
33955;DHT22;20233;50.804;7.126;2023-09-08T08:54:55;23.40;99.90
33955;DHT22;20233;50.804;7.126;2023-09-08T08:57:22;23.50;99.90
33955;DHT22;20233;50.804;7.126;2023-09-08T08:59:50;23.60;99.90
33955;DHT22;20233;50.804;7.126;2023-09-08T09:02:18;23.70;99.90
33955;DHT22;20233;50.804;7.126;2023-09-08T09:04:45;23.80;99.90
33955;DHT22;20233;50.804;7.126;2023-09-08T09:07:12;24.00;99.90
33955;DHT22;20233;50.804;7.126;2023-09-08T09:09:39;24.10;99.90
33955;DHT22;20233;50.804;7.126;2023-09-08T09:12:06;24.20;99.90
33955;DHT22;20233;50.804;7.126;2023-09-08T09:14:34;24.30;99.90
33955;DHT22;20233;50.804;7.126;2023-09-08T09:17:01;24.30;99.90
33955;DHT22;20233;50.804;7.126;2023-09-08T09:19:30;24.40;99.90
33955;DHT22;20233;50.804;7.126;2023-09-08T09:21:58;24.60;99.90
33955;DHT22;20233;50.804;7.126;2023-09-08T09:24:38;24.70;99.90
33955;DHT22;20233;50.804;7.126;2023-09-08T09:27:11;24.80;99.90
33955;DHT22;20233;50.804;7.126;2023-09-08T09:29:49;24.90;99.90
33955;DHT22;20233;50.804;7.126;2023-09-08T09:32:23;25.10;99.90
33955;DHT22;20233;50.804;7.126;2023-09-08T09:34:51;25.20;99.90
33955;DHT22;20233;50.804;7.126;2023-09-08T09:37:23;25.20;99.90
33955;DHT22;20233;50.804;7.126;2023-09-08T09:39:54;25.40;99.90
33955;DHT22;20233;50.804;7.126;2023-09-08T09:42:21;25.60;99.90
33955;DHT22;20233;50.804;7.126;2023-09-08T09:44:49;25.60;99.90
33955;DHT22;20233;50.804;7.126;2023-09-08T09:47:18;25.80;99.90
33955;DHT22;20233;50.804;7.126;2023-09-08T09:49:49;25.90;99.90
33955;DHT22;20233;50.804;7.126;2023-09-08T09:52:24;26.00;99.90
33955;DHT22;20233;50.804;7.126;2023-09-08T09:54:53;26.00;99.90
33955;DHT22;20233;50.804;7.126;2023-09-08T09:57:23;26.00;99.90
33955;DHT22;20233;50.804;7.126;2023-09-08T09:59:51;26.10;99.90
33955;DHT22;20233;50.804;7.126;2023-09-08T10:02:20;26.20;99.90
33955;DHT22;20233;50.804;7.126;2023-09-08T10:04:48;26.40;99.90
33955;DHT22;20233;50.804;7.126;2023-09-08T10:07:16;26.50;99.90
33955;DHT22;20233;50.804;7.126;2023-09-08T10:09:46;26.60;99.90
33955;DHT22;20233;50.804;7.126;2023-09-08T10:12:14;26.80;99.90
33955;DHT22;20233;50.804;7.126;2023-09-08T10:17:15;26.90;99.90
33955;DHT22;20233;50.804;7.126;2023-09-08T10:19:47;27.00;99.90
33955;DHT22;20233;50.804;7.126;2023-09-08T10:22:20;27.00;99.90
33955;DHT22;20233;50.804;7.126;2023-09-08T10:24:54;27.10;99.90
33955;DHT22;20233;50.804;7.126;2023-09-08T10:27:22;27.20;99.90
33955;DHT22;20233;50.804;7.126;2023-09-08T10:29:50;27.40;99.90
33955;DHT22;20233;50.804;7.126;2023-09-08T10:32:20;27.40;99.90
33955;DHT22;20233;50.804;7.126;2023-09-08T10:34:48;27.50;99.90
33955;DHT22;20233;50.804;7.126;2023-09-08T10:37:25;27.60;99.90
33955;DHT22;20233;50.804;7.126;2023-09-08T10:40:23;27.70;99.90
33955;DHT22;20233;50.804;7.126;2023-09-08T10:43:06;27.80;99.90
33955;DHT22;20233;50.804;7.126;2023-09-08T10:45:32;27.90;99.90
33955;DHT22;20233;50.804;7.126;2023-09-08T10:47:58;28.00;99.90
33955;DHT22;20233;50.804;7.126;2023-09-08T10:50:33;28.10;99.90
33955;DHT22;20233;50.804;7.126;2023-09-08T10:53:17;28.00;99.90
33955;DHT22;20233;50.804;7.126;2023-09-08T10:55:48;28.10;99.90
33955;DHT22;20233;50.804;7.126;2023-09-08T10:58:34;28.20;99.90
33955;DHT22;20233;50.804;7.126;2023-09-08T11:01:16;28.10;99.90
33955;DHT22;20233;50.804;7.126;2023-09-08T11:03:46;28.30;99.90
33955;DHT22;20233;50.804;7.126;2023-09-08T11:06:19;28.50;99.90
33955;DHT22;20233;50.804;7.126;2023-09-08T11:08:46;28.70;99.90
33955;DHT22;20233;50.804;7.126;2023-09-08T11:11:16;28.70;99.90
33955;DHT22;20233;50.804;7.126;2023-09-08T11:14:03;28.90;99.90
33955;DHT22;20233;50.804;7.126;2023-09-08T11:16:30;29.00;99.90
33955;DHT22;20233;50.804;7.126;2023-09-08T11:18:59;29.10;99.90
33955;DHT22;20233;50.804;7.126;2023-09-08T11:21:29;29.10;99.90
33955;DHT22;20233;50.804;7.126;2023-09-08T11:24:02;29.10;99.90
33955;DHT22;20233;50.804;7.126;2023-09-08T11:26:44;29.20;99.90
33955;DHT22;20233;50.804;7.126;2023-09-08T11:29:12;29.20;99.90
33955;DHT22;20233;50.804;7.126;2023-09-08T11:31:38;29.40;99.90
33955;DHT22;20233;50.804;7.126;2023-09-08T11:34:05;29.50;99.90
33955;DHT22;20233;50.804;7.126;2023-09-08T11:36:32;29.50;99.90
33955;DHT22;20233;50.804;7.126;2023-09-08T11:38:59;29.60;99.90
33955;DHT22;20233;50.804;7.126;2023-09-08T11:41:25;29.80;99.90
33955;DHT22;20233;50.804;7.126;2023-09-08T11:43:51;29.90;99.90
33955;DHT22;20233;50.804;7.126;2023-09-08T11:46:18;30.00;99.90
33955;DHT22;20233;50.804;7.126;2023-09-08T11:51:13;30.10;99.90
33955;DHT22;20233;50.804;7.126;2023-09-08T11:53:40;29.90;99.90
33955;DHT22;20233;50.804;7.126;2023-09-08T11:56:08;29.90;99.90
33955;DHT22;20233;50.804;7.126;2023-09-08T11:58:36;30.10;99.90
33955;DHT22;20233;50.804;7.126;2023-09-08T12:03:34;30.30;99.90
33955;DHT22;20233;50.804;7.126;2023-09-08T12:06:05;30.50;99.90
33955;DHT22;20233;50.804;7.126;2023-09-08T12:08:31;30.50;99.90
33955;DHT22;20233;50.804;7.126;2023-09-08T12:10:58;30.60;99.90
33955;DHT22;20233;50.804;7.126;2023-09-08T12:13:24;30.70;99.90
33955;DHT22;20233;50.804;7.126;2023-09-08T12:18:37;30.90;99.90
33955;DHT22;20233;50.804;7.126;2023-09-08T12:21:05;30.70;99.90
33955;DHT22;20233;50.804;7.126;2023-09-08T12:23:32;30.80;99.90
33955;DHT22;20233;50.804;7.126;2023-09-08T12:25:59;31.00;99.90
33955;DHT22;20233;50.804;7.126;2023-09-08T12:28:30;31.10;99.90
33955;DHT22;20233;50.804;7.126;2023-09-08T12:30:57;31.10;99.90
33955;DHT22;20233;50.804;7.126;2023-09-08T12:33:22;31.10;99.90
33955;DHT22;20233;50.804;7.126;2023-09-08T12:35:49;31.00;99.90
33955;DHT22;20233;50.804;7.126;2023-09-08T12:38:18;30.90;99.90
33955;DHT22;20233;50.804;7.126;2023-09-08T12:40:45;31.10;99.90
33955;DHT22;20233;50.804;7.126;2023-09-08T12:43:12;31.10;99.90
33955;DHT22;20233;50.804;7.126;2023-09-08T12:48:06;31.40;99.90
33955;DHT22;20233;50.804;7.126;2023-09-08T12:50:33;31.50;99.90
33955;DHT22;20233;50.804;7.126;2023-09-08T12:53:00;31.40;99.90
33955;DHT22;20233;50.804;7.126;2023-09-08T12:55:26;31.50;99.90
33955;DHT22;20233;50.804;7.126;2023-09-08T12:57:53;31.50;99.90
33955;DHT22;20233;50.804;7.126;2023-09-08T13:00:23;31.70;99.90
33955;DHT22;20233;50.804;7.126;2023-09-08T13:02:49;31.80;99.90
33955;DHT22;20233;50.804;7.126;2023-09-08T13:07:42;31.90;99.90
33955;DHT22;20233;50.804;7.126;2023-09-08T13:10:10;32.00;99.90
33955;DHT22;20233;50.804;7.126;2023-09-08T13:12:39;32.00;99.90
33955;DHT22;20233;50.804;7.126;2023-09-08T13:15:06;32.10;99.90
33955;DHT22;20233;50.804;7.126;2023-09-08T13:17:33;32.00;99.90
33955;DHT22;20233;50.804;7.126;2023-09-08T13:19:59;32.00;99.90
33955;DHT22;20233;50.804;7.126;2023-09-08T13:22:25;32.10;99.90
33955;DHT22;20233;50.804;7.126;2023-09-08T13:24:51;32.10;99.90
33955;DHT22;20233;50.804;7.126;2023-09-08T13:29:45;32.30;99.90
33955;DHT22;20233;50.804;7.126;2023-09-08T13:32:12;32.30;99.90
33955;DHT22;20233;50.804;7.126;2023-09-08T13:34:39;32.50;99.90
33955;DHT22;20233;50.804;7.126;2023-09-08T13:37:05;32.70;99.90
33955;DHT22;20233;50.804;7.126;2023-09-08T13:39:31;32.80;99.90
33955;DHT22;20233;50.804;7.126;2023-09-08T13:41:59;32.70;99.90
33955;DHT22;20233;50.804;7.126;2023-09-08T13:44:26;32.50;99.90
33955;DHT22;20233;50.804;7.126;2023-09-08T13:46:53;32.10;99.90
33955;DHT22;20233;50.804;7.126;2023-09-08T13:49:20;32.20;99.90
33955;DHT22;20233;50.804;7.126;2023-09-08T13:51:47;32.40;99.90
33955;DHT22;20233;50.804;7.126;2023-09-08T13:54:14;32.50;99.90
33955;DHT22;20233;50.804;7.126;2023-09-08T13:56:42;32.50;99.90
33955;DHT22;20233;50.804;7.126;2023-09-08T13:59:09;32.60;99.90
33955;DHT22;20233;50.804;7.126;2023-09-08T14:01:37;32.70;99.90
33955;DHT22;20233;50.804;7.126;2023-09-08T14:04:04;32.80;99.90
33955;DHT22;20233;50.804;7.126;2023-09-08T14:06:32;32.90;99.90
33955;DHT22;20233;50.804;7.126;2023-09-08T14:09:00;32.80;99.90
33955;DHT22;20233;50.804;7.126;2023-09-08T14:11:26;32.70;99.90
33955;DHT22;20233;50.804;7.126;2023-09-08T14:16:20;32.90;99.90
33955;DHT22;20233;50.804;7.126;2023-09-08T14:18:46;33.20;99.90
33955;DHT22;20233;50.804;7.126;2023-09-08T14:21:13;33.20;99.90
33955;DHT22;20233;50.804;7.126;2023-09-08T14:23:40;33.30;99.90
33955;DHT22;20233;50.804;7.126;2023-09-08T14:26:07;32.70;99.90
33955;DHT22;20233;50.804;7.126;2023-09-08T14:28:34;32.70;99.90
33955;DHT22;20233;50.804;7.126;2023-09-08T14:31:02;32.70;99.90
33955;DHT22;20233;50.804;7.126;2023-09-08T14:33:28;32.80;99.90
33955;DHT22;20233;50.804;7.126;2023-09-08T14:35:55;32.10;99.80
33955;DHT22;20233;50.804;7.126;2023-09-08T14:38:24;32.20;99.90
33955;DHT22;20233;50.804;7.126;2023-09-08T14:41:01;32.50;99.90
33955;DHT22;20233;50.804;7.126;2023-09-08T14:43:28;32.80;99.90
33955;DHT22;20233;50.804;7.126;2023-09-08T14:45:55;32.90;99.90
33955;DHT22;20233;50.804;7.126;2023-09-08T14:48:24;33.10;99.90
33955;DHT22;20233;50.804;7.126;2023-09-08T14:50:51;33.20;99.90
33955;DHT22;20233;50.804;7.126;2023-09-08T14:53:18;33.10;99.90
33955;DHT22;20233;50.804;7.126;2023-09-08T14:55:44;33.10;99.90
33955;DHT22;20233;50.804;7.126;2023-09-08T14:58:13;33.30;99.90
33955;DHT22;20233;50.804;7.126;2023-09-08T15:00:40;33.10;99.90
33955;DHT22;20233;50.804;7.126;2023-09-08T15:03:07;33.00;99.90
33955;DHT22;20233;50.804;7.126;2023-09-08T15:05:34;32.90;99.90
33955;DHT22;20233;50.804;7.126;2023-09-08T15:08:01;32.80;99.90
33955;DHT22;20233;50.804;7.126;2023-09-08T15:10:28;32.70;99.90
33955;DHT22;20233;50.804;7.126;2023-09-08T15:12:54;32.90;99.90
33955;DHT22;20233;50.804;7.126;2023-09-08T15:15:21;32.80;99.90
33955;DHT22;20233;50.804;7.126;2023-09-08T15:17:54;32.80;99.90
33955;DHT22;20233;50.804;7.126;2023-09-08T15:20:22;32.80;99.90
33955;DHT22;20233;50.804;7.126;2023-09-08T15:22:48;32.80;99.90
33955;DHT22;20233;50.804;7.126;2023-09-08T15:25:15;32.70;99.90
33955;DHT22;20233;50.804;7.126;2023-09-08T15:27:42;32.70;99.90
33955;DHT22;20233;50.804;7.126;2023-09-08T15:30:10;32.70;99.90
33955;DHT22;20233;50.804;7.126;2023-09-08T15:32:37;32.70;99.90
33955;DHT22;20233;50.804;7.126;2023-09-08T15:35:06;32.70;99.90
33955;DHT22;20233;50.804;7.126;2023-09-08T15:37:33;32.60;99.90
33955;DHT22;20233;50.804;7.126;2023-09-08T15:40:00;32.60;99.90
33955;DHT22;20233;50.804;7.126;2023-09-08T15:42:26;32.40;99.90
33955;DHT22;20233;50.804;7.126;2023-09-08T15:44:53;32.40;99.90
33955;DHT22;20233;50.804;7.126;2023-09-08T15:47:19;32.40;99.90
33955;DHT22;20233;50.804;7.126;2023-09-08T15:49:49;32.30;99.90
33955;DHT22;20233;50.804;7.126;2023-09-08T15:52:16;32.30;99.90
33955;DHT22;20233;50.804;7.126;2023-09-08T15:54:42;32.40;99.90
33955;DHT22;20233;50.804;7.126;2023-09-08T15:57:09;32.50;99.90
33955;DHT22;20233;50.804;7.126;2023-09-08T15:59:37;32.30;99.90